»·PEaware :: N1BD KBIL-KASE

N1BD :: KBIL-KASE

FLIGHT INFORMATION

Flight Status: Arrived
Operator: Privately registered:
United States
More flights under this callsign
Pilot: Anonymous 26385 (26385)
Aircraft: SOCATA TBM-900
(TBM9)
More flights by this aircraft type
Origin: KBIL Billings Logan Intl
United States
Destination: KASE Aspen-Pitkin Co/Sardy
United States
More flights between these airports :: More routes between these airports
Route: +BIL5 IKFOM BOJOL TRUEL
File this flight plan on PilotEdge
Remarks:
Altitude:
(Current/Filed)
31,000ft
Speed:
(Current/Filed)
220kts
Departed: 02-Dec-19 05:33 PM
Arrived: 02-Dec-19 07:09 PM
Distance/Time
Traveled:
402nm/1:36
Distance/Time
To Go:
Arrived

Flight Plot

Page will automatically refresh every two minutes.

Flight plan parsing failed; only flown route is shown


Map Options




Map Legend


Flown Route
Filed Route
Departure Airport
Arrival Airport
Navaid (VOR, NDB)
Fix

Horizontal Profiles

Position Reports

Time Latitude Longitude Heading Altitude Ground
Speed
02-Dec-19 17:16 45.803573 -108.550454 90 3654ft 0kts
02-Dec-19 17:17 45.803573 -108.550454 90 3654ft 0kts
02-Dec-19 17:18 45.803573 -108.550454 90 3654ft 0kts
02-Dec-19 17:19 45.803573 -108.550454 90 3654ft 0kts
02-Dec-19 17:20 45.803573 -108.550454 90 3654ft 0kts
02-Dec-19 17:21 45.803573 -108.550454 90 3654ft 0kts
02-Dec-19 17:22 45.803573 -108.550454 90 3654ft 0kts
02-Dec-19 17:23 45.803573 -108.550454 90 3654ft 0kts
02-Dec-19 17:24 45.803594 -108.549918 54 3654ft 9kts
02-Dec-19 17:25 45.804578 -108.549989 48 3654ft 0kts
02-Dec-19 17:26 45.804600 -108.549939 67 3654ft 4kts
02-Dec-19 17:27 45.805873 -108.544876 91 3654ft 25kts
02-Dec-19 17:28 45.805605 -108.536164 109 3654ft 28kts
02-Dec-19 17:29 45.803109 -108.524683 111 3654ft 34kts
02-Dec-19 17:30 45.801227 -108.517320 52 3654ft 0kts
02-Dec-19 17:31 45.801324 -108.517151 47 3654ft 11kts
02-Dec-19 17:32 45.806883 -108.533743 288 3781ft 128kts
02-Dec-19 17:33 45.823114 -108.588641 288 6054ft 143kts
02-Dec-19 17:34 45.839661 -108.643789 288 7019ft 176kts
02-Dec-19 17:35 45.855127 -108.711860 244 7174ft 177kts
02-Dec-19 17:36 45.809902 -108.700926 173 9778ft 188kts
02-Dec-19 17:37 45.757746 -108.686273 184 11923ft 199kts
02-Dec-19 17:38 45.701976 -108.675900 185 14035ft 208kts
02-Dec-19 17:39 45.644248 -108.665688 185 15932ft 211kts
02-Dec-19 17:40 45.584989 -108.655234 185 17861ft 217kts
02-Dec-19 17:41 45.523162 -108.644393 185 19496ft 228kts
02-Dec-19 17:42 45.459499 -108.633249 186 21110ft 232kts
02-Dec-19 17:43 45.394482 -108.621930 186 22620ft 239kts
02-Dec-19 17:44 45.328233 -108.610377 187 24122ft 244kts
02-Dec-19 17:45 45.260037 -108.598542 187 25548ft 251kts
02-Dec-19 17:46 45.189354 -108.586288 187 26781ft 262kts
02-Dec-19 17:47 45.116035 -108.573612 188 27975ft 267kts
02-Dec-19 17:48 45.041390 -108.560737 188 28981ft 272kts
02-Dec-19 17:49 44.965895 -108.547756 189 29738ft 276kts
02-Dec-19 17:50 44.889538 -108.535583 190 30392ft 275kts
02-Dec-19 17:51 44.813792 -108.525163 190 30931ft 279kts
02-Dec-19 17:52 44.734102 -108.514262 189 31044ft 298kts
02-Dec-19 17:53 44.650070 -108.502725 189 31039ft 308kts
02-Dec-19 17:54 44.564533 -108.491015 189 31054ft 310kts
02-Dec-19 17:55 44.478184 -108.479267 189 31079ft 311kts
02-Dec-19 17:56 44.392108 -108.467589 189 31082ft 311kts
02-Dec-19 17:57 44.305931 -108.455935 189 31082ft 312kts
02-Dec-19 17:58 44.219858 -108.444327 189 31082ft 312kts
02-Dec-19 17:59 44.133451 -108.432698 190 31082ft 311kts
02-Dec-19 18:00 44.047596 -108.421194 190 31083ft 310kts
02-Dec-19 18:01 43.961806 -108.409717 190 31085ft 310kts
02-Dec-19 18:02 43.877622 -108.398505 190 31084ft 310kts
02-Dec-19 18:03 43.791867 -108.387109 190 31083ft 310kts
02-Dec-19 18:04 43.706072 -108.375735 190 31084ft 309kts
02-Dec-19 18:05 43.620478 -108.364420 190 31097ft 308kts
02-Dec-19 18:06 43.535361 -108.353204 190 31116ft 308kts
02-Dec-19 18:07 43.451399 -108.342174 190 31102ft 306kts
02-Dec-19 18:08 43.367004 -108.331106 190 31103ft 304kts
02-Dec-19 18:09 43.283261 -108.320164 191 31103ft 303kts
02-Dec-19 18:10 43.199259 -108.309220 191 31104ft 302kts
02-Dec-19 18:11 43.115565 -108.298344 190 31104ft 302kts
02-Dec-19 18:12 43.031837 -108.287494 190 31104ft 303kts
02-Dec-19 18:13 42.948097 -108.276670 190 31105ft 303kts
02-Dec-19 18:14 42.865663 -108.266041 190 31105ft 303kts
02-Dec-19 18:15 42.781929 -108.255291 190 31105ft 303kts
02-Dec-19 18:16 42.697884 -108.244502 190 31105ft 303kts
02-Dec-19 18:18 42.613905 -108.233772 189 31106ft 304kts
02-Dec-19 18:19 42.530066 -108.223059 189 31101ft 300kts
02-Dec-19 18:20 42.448299 -108.212652 190 31102ft 291kts
02-Dec-19 18:21 42.368384 -108.202538 190 31106ft 287kts
02-Dec-19 18:22 42.289015 -108.192279 186 31111ft 291kts
02-Dec-19 18:23 42.208703 -108.164320 180 31129ft 299kts
02-Dec-19 18:24 42.128132 -108.135554 180 31126ft 304kts
02-Dec-19 18:25 42.046688 -108.106559 180 31225ft 304kts
02-Dec-19 18:26 41.964763 -108.077516 179 31259ft 306kts
02-Dec-19 18:27 41.885127 -108.049260 180 31274ft 307kts
02-Dec-19 18:28 41.802152 -108.019940 179 31329ft 306kts
02-Dec-19 18:29 41.719419 -107.990766 180 31177ft 306kts
02-Dec-19 18:30 41.637423 -107.961976 180 31184ft 306kts
02-Dec-19 18:31 41.554849 -107.933019 180 31184ft 306kts
02-Dec-19 18:32 41.472332 -107.904172 180 31184ft 307kts
02-Dec-19 18:33 41.389747 -107.875386 180 31204ft 306kts
02-Dec-19 18:34 41.307255 -107.846684 181 31247ft 306kts
02-Dec-19 18:35 41.224910 -107.818140 181 31268ft 305kts
02-Dec-19 18:36 41.142702 -107.789706 181 31270ft 305kts
02-Dec-19 18:36 41.074327 -107.766091 182 31269ft 305kts
02-Dec-19 18:38 40.978439 -107.733084 182 31271ft 305kts
02-Dec-19 18:39 40.898660 -107.705764 183 31415ft 305kts
02-Dec-19 18:39 40.830940 -107.682559 183 31399ft 309kts
02-Dec-19 18:40 40.748372 -107.654373 182 31555ft 310kts
02-Dec-19 18:42 40.650559 -107.620929 183 31537ft 312kts
02-Dec-19 18:43 40.565979 -107.592287 182 31364ft 317kts
02-Dec-19 18:43 40.493132 -107.567777 180 29690ft 342kts
02-Dec-19 18:44 40.401385 -107.536551 179 27780ft 335kts
02-Dec-19 18:45 40.312121 -107.506467 178 26322ft 330kts
02-Dec-19 18:46 40.223674 -107.476733 177 24873ft 328kts
02-Dec-19 18:47 40.136284 -107.447356 177 24244ft 313kts
02-Dec-19 18:48 40.053823 -107.419802 178 24251ft 301kts
02-Dec-19 18:49 39.971949 -107.392514 178 24255ft 304kts
02-Dec-19 18:51 39.878013 -107.361254 177 24266ft 304kts
02-Dec-19 18:51 39.812736 -107.339584 178 24293ft 303kts
02-Dec-19 18:52 39.728639 -107.311782 176 21586ft 314kts
02-Dec-19 18:53 39.649809 -107.262979 152 19300ft 321kts
02-Dec-19 18:54 39.578885 -107.196511 153 19287ft 310kts
02-Dec-19 18:55 39.509079 -107.131565 153 19290ft 307kts
02-Dec-19 18:56 39.439755 -107.067219 153 19286ft 304kts
02-Dec-19 18:57 39.370228 -107.013168 191 19214ft 265kts
02-Dec-19 18:58 39.359225 -107.072330 318 17671ft 250kts
02-Dec-19 18:59 39.416766 -107.120028 319 16191ft 244kts
02-Dec-19 19:00 39.472983 -107.077527 68 14216ft 303kts
02-Dec-19 19:01 39.489564 -106.977807 120 12967ft 259kts
02-Dec-19 19:02 39.435662 -106.949330 179 13002ft 197kts
02-Dec-19 19:03 39.381198 -106.941503 188 12277ft 182kts
02-Dec-19 19:04 39.332259 -106.920906 168 11859ft 196kts
02-Dec-19 19:05 39.288479 -106.899263 163 10617ft 128kts
02-Dec-19 19:06 39.261806 -106.886993 163 8963ft 97kts
02-Dec-19 19:07 39.235222 -106.874578 159 7938ft 99kts
02-Dec-19 19:08 39.225742 -106.868919 135 7837ft 0kts
02-Dec-19 19:09 39.222769 -106.866785 253 7837ft 0kts
02-Dec-19 19:10 39.222769 -106.866784 253 7837ft 0kts
02-Dec-19 19:11 39.222769 -106.866784 253 7837ft 0kts
02-Dec-19 19:12 39.222769 -106.866784 253 7837ft 0kts
02-Dec-19 19:13 39.222769 -106.866784 253 7837ft 0kts
02-Dec-19 19:14 39.222769 -106.866784 253 7837ft 0kts

Navigation Log

Ident Type
Flight plan parsing failed, navigation log unavailable